South Reno (Wolf Run), Nevada Weather observations

Data are for observation ending at time listed.
 Day   Time    Ave.   Ave.  Ave.  Vector   Max.   Stn.    Total    Solar   Ave.  
  of    of     Air    Rel.  Wind   Wind    Wind   Baro.  Precip.   Rad.    Soil  
Year   Day     Temp.  Hum.  Speed  Dir.    Gust   Pres.                    Temp. 
2019   (PST)    F      %     mph   deg.    mph     mb.     in.     W/m2     F   
------------------------------------------------------------------------------
  81    6:20   30.0    75    3.7   246      6.2  99999.0    0.00      26    45.2
  81    6:30   31.2    73    2.5   245      5.9  99999.0    0.00      76    45.1
  81    6:40   33.3    69    1.1   248      4.6  99999.0    0.00     125    45.1
  81    6:50   35.2    66    0.3   218      1.3  99999.0    0.00     114    45.0
  81    7:00   35.6    66    0.6   235      1.9  99999.0    0.00      87    45.0
  81    7:10   37.1    64    0.0     0      0.0  99999.0    0.00     190    44.9
  81    7:20   39.6    59    0.0     0      0.0  99999.0    0.00     237    44.9
  81    7:30   40.5    57    0.0     0      0.0  99999.0    0.00     273    44.8
  81    7:40   40.1    59    0.5   340      2.4  99999.0    0.00     141    44.8
  81    7:50   38.6    62    1.2    12      2.9  99999.0    0.00     210    44.7
  81    8:00   37.9    65    1.1   357      2.0  99999.0    0.00     149    44.7
  81    8:10   38.6    64    1.2     4      2.7  99999.0    0.00     247    44.6
  81    8:20   38.8    63    0.5    58      2.4  99999.0    0.00     155    44.6
  81    8:30   37.7    66    0.7    71      2.4  99999.0    0.00     137    44.5
  81    8:40   38.0    65    0.6   358      2.8  99999.0    0.00     175    44.5
  81    8:50   38.6    63    1.4   348      2.5  99999.0    0.00     335    44.4
  81    9:00   40.8    57    2.3     6      3.5  99999.0    0.00     565    44.4
  81    9:10   41.5    55    2.0    24      3.7  99999.0    0.00     518    44.3
  81    9:20   41.7    54    1.7    20      3.5  99999.0    0.00     454    44.3
  81    9:30   41.5    55    2.5    33      4.1  99999.0    0.00     421    44.3
  81    9:40   42.2    54    3.1    35      4.7  99999.0    0.00     557    44.2
  81    9:50   43.5    50    1.6    30      4.5  99999.0    0.00     563    44.2
  81   10:00   44.6    48    1.1    14      4.4  99999.0    0.00     424    44.2
  81   10:10   44.2    48    1.2     8      3.1  99999.0    0.00     392    44.2
  81   10:20   44.4    48    1.8    55      3.9  99999.0    0.00     395    44.2
  81   10:30   45.2    44    0.9    54      2.6  99999.0    0.00     457    44.2
  81   10:40   46.3    43    0.3   343      2.5  99999.0    0.00     357    44.2
  81   10:50   46.5    42    0.8    12      2.5  99999.0    0.00     313    44.3
  81   11:00   46.5    40    0.9    63      2.9  99999.0    0.00     292    44.3
  81   11:10   46.3    39    1.4    83      4.7  99999.0    0.00     315    44.4
  81   11:20   47.0    38    0.7    14      3.9  99999.0    0.00     350    44.5
  81   11:30   47.9    36    1.4    10      3.2  99999.0    0.00     439    44.6
  81   11:40   47.9    36    1.9    29      4.1  99999.0    0.00     467    44.7
  81   11:50   48.0    35    2.1    13      4.0  99999.0    0.00     390    44.8
  81   12:00   48.5    34    1.2    63      4.5  99999.0    0.00     416    44.9
  81   12:10   48.7    32    2.0    28      3.9  99999.0    0.00     404    45.0
  81   12:20   49.5    32    1.3   330      4.4  99999.0    0.00     487    45.1
  81   12:30   49.3    31    2.2     5      5.4  99999.0    0.00     443    45.2
  81   12:40   49.5    31    2.2   308      6.1  99999.0    0.00     497    45.3
  81   12:50   49.2    32    1.1   266      4.5  99999.0    0.00     600    45.4
  81   13:00   49.7    31    1.6   290      3.9  99999.0    0.00     534    45.5
  81   13:10   50.0    31    2.1     7      5.3  99999.0    0.00     516    45.6
  81   13:20   50.6    31    1.5   349      4.7  99999.0    0.00     438    45.7
  81   13:30   51.4    32    0.5   328      3.4  99999.0    0.00     384    45.9
  81   13:40   50.8    30    0.5   272      2.0  99999.0    0.00     379    46.0
  81   13:50   51.2    30    1.5    10      3.8  99999.0    0.00     417    46.1
  81   14:00   50.5    30    2.0    38      4.1  99999.0    0.00     359    46.2
  81   14:10   50.5    31    0.5    88      3.3  99999.0    0.00     341    46.3
  81   14:20   50.5    32    1.9    81      5.0  99999.0    0.00     307    46.5
  81   14:30   50.6    32    1.7    88      5.7  99999.0    0.00     270    46.6
  81   14:40   50.2    38    3.8   117      8.6  99999.0    0.00     287    46.7
  81   14:50   50.3    38    3.8   132      7.7  99999.0    0.00     287    46.8
  81   15:00   50.0    38    4.5    90      9.0  99999.0    0.00     224    46.9
  81   15:10   50.4    38    3.0    42      6.0  99999.0    0.00     195    47.0
  81   15:20   50.1    39    2.6    55      8.3  99999.0    0.00     181    47.2
  81   15:30   49.8    39    2.5   132      6.1  99999.0    0.00     178    47.2
  81   15:40   49.9    38    2.1   128      4.5  99999.0    0.00     154    47.3
  81   15:50   49.9    42    5.3    88      9.2  99999.0    0.00     146    47.4
  81   16:00   49.8    43    4.6    81      8.8  99999.0    0.00     133    47.5
  81   16:10   49.8    41    2.5    40      4.5  99999.0    0.00     137    47.6
  81   16:20   49.8    41    3.0    46      5.0  99999.0    0.00     138    47.6
  81   16:30   50.1    40    1.5     8      3.0  99999.0    0.00     155    47.7
  81   16:40   50.6    39    1.3   341      3.4  99999.0    0.00     156    47.7
  81   16:50   50.3    41    2.1    13      4.6  99999.0    0.00     113    47.8
  81   17:00   49.9    42    2.9    24      4.8  99999.0    0.00      91    47.8
  81   17:10   49.5    42    2.3   355      5.0  99999.0    0.00      70    47.9
  81   17:20   49.3    43    2.0   355      3.7  99999.0    0.00      67    47.9
  81   17:30   49.2    44    2.0    44      3.9  99999.0    0.00      56    47.9
  81   17:40   48.8    44    3.6    20      6.4  99999.0    0.00      47    47.9
  81   17:50   48.3    46    3.0    22      5.4  99999.0    0.00      39    48.0
  81   18:00   47.9    47    4.0    27      6.1  99999.0    0.00      27    48.0
  81   18:10   47.1    50    3.5    40      6.2  99999.0    0.00      12    48.0
  81   18:20   46.5    52    2.4    26      4.3  99999.0    0.00       2    48.0
  81   18:30   46.1    53    1.0   358      2.4  99999.0    0.00       0    48.0
  81   18:40   46.0    53    0.2   340      1.6  99999.0    0.00       0    48.0
  81   18:50   45.8    55    0.0     0      0.0  99999.0    0.00       0    48.0
  81   19:00   45.5    57    1.1   192      3.3  99999.0    0.00       0    48.0
  81   19:10   45.2    58    1.6   208      3.9  99999.0    0.00       0    48.0
  81   19:20   44.9    58    4.8   223      8.7  99999.0    0.00       0    48.0
  81   19:30   45.2    57    5.3   210      8.6  99999.0    0.00       0    48.0
  81   19:40   45.2    57    3.3   212      8.2  99999.0    0.00       0    48.0
  81   19:50   44.9    58    3.6   230      8.5  99999.0    0.00       0    47.9
  81   20:00   44.7    59    2.5   212      7.4  99999.0    0.00       0    47.9
  81   20:10   44.7    58    1.4    94      3.9  99999.0    0.00       0    47.9
  81   20:20   44.3    60    1.5   339      2.6  99999.0    0.00       0    47.9
  81   20:30   44.0    60    2.0   350      3.4  99999.0    0.00       0    47.8
  81   20:40   44.3    58    3.8   320      7.7  99999.0    0.00       0    47.8
  81   20:50   44.2    59    4.7   302      8.8  99999.0    0.00       0    47.8
  81   21:00   44.1    59    4.7   298      7.8  99999.0    0.00       0    47.8
  81   21:10   44.0    60    4.8   263     10.9  99999.0    0.00       0    47.7
  81   21:20   44.3    58    2.8   242      7.3  99999.0    0.00       0    47.7
  81   21:30   44.4    58    0.8   295      4.3  99999.0    0.00       0    47.7
  81   21:40   44.0    59    1.3   324      4.0  99999.0    0.00       0    47.6
  81   21:50   44.1    59    1.3   176      2.7  99999.0    0.00       0    47.6
  81   22:00   43.9    61    2.3   275      6.0  99999.0    0.00       0    47.6
  81   22:10   43.4    65    1.3   218      2.6  99999.0    0.00       0    47.5
  81   22:20   42.6    70    0.1   218      1.5  99999.0    0.00       0    47.5
  81   22:30   42.6    70    0.4   223      2.2  99999.0    0.00       0    47.4
  81   22:40   42.6    71    1.6   204      4.9  99999.0    0.01       0    47.4
  81   22:50   41.9    76    1.9   186      2.9  99999.0    0.00       0    47.4
  81   23:00   41.8    76    1.4   213      2.9  99999.0    0.00       0    47.4
  81   23:10   41.3    79    1.2   229      1.9  99999.0    0.00       0    47.3
  81   23:20   41.0    81    1.3   247      3.2  99999.0    0.00       0    47.3
  81   23:30   40.9    81    2.0   255      5.0  99999.0    0.00       0    47.3
  81   23:40   41.1    80    2.1   256      5.0  99999.0    0.00       0    47.2
  81   23:50   41.0    81    1.7   255      4.7  99999.0    0.00       0    47.2
  82    0:00   40.8    84    0.4   260      1.5  99999.0    0.00       0    47.2
  82    0:10   40.7    85    0.3   318      3.0  99999.0    0.01       0    47.2
  82    0:20   40.5    86    1.4   324      3.8  99999.0    0.00       1    47.1
  82    0:30   40.1    85    1.6   347      3.1  99999.0    0.01       1    47.1
  82    0:40   39.9    86    0.7   357      1.8  99999.0    0.00       1    47.1
  82    0:50   39.9    87    0.0     0      0.0  99999.0    0.01       1    47.0
  82    1:00   39.9    87    0.0     0      0.0  99999.0    0.01       0    47.0
  82    1:10   39.8    87    0.0   304      0.9  99999.0    0.01       0    47.0
  82    1:20   39.8    87    0.0     0      0.0  99999.0    0.00       0    47.0
  82    1:30   39.8    88    0.0     0      0.0  99999.0    0.01       0    46.9
  82    1:40   39.6    88    0.0   359      1.1  99999.0    0.01       0    46.9
  82    1:50   39.6    88    0.0   326      0.1  99999.0    0.01       0    46.9
  82    2:00   39.3    88    0.2   333      1.9  99999.0    0.01       0    46.9
  82    2:10   39.1    88    0.0     0      0.0  99999.0    0.01       0    46.9
  82    2:20   39.0    88    0.0   343      0.7  99999.0    0.01       0    46.8
  82    2:30   38.9    88    0.0   326      1.1  99999.0    0.01       0    46.8
  82    2:40   38.6    89    1.4   341      3.1  99999.0    0.00       0    46.8
  82    2:50   38.2    89    1.3   341      2.3  99999.0    0.01       0    46.7
  82    3:00   38.0    89    1.0   334      2.1  99999.0    0.01       0    46.7
  82    3:10   37.9    90    1.3   332      2.6  99999.0    0.01       0    46.7
  82    3:20   37.7    90    1.0   323      2.3  99999.0    0.00       0    46.7
  82    3:30   37.5    90    0.8   330      1.8  99999.0    0.01       0    46.6
  82    3:40   37.3    90    0.7   305      2.9  99999.0    0.01       0    46.6
  82    3:50   37.0    90    0.4   306      1.8  99999.0    0.00       0    46.6
  82    4:00   36.8    90    0.0     0      0.0  99999.0    0.01       0    46.6
  82    4:10   36.6    90    0.0     0      0.0  99999.0    0.01       0    46.5
  82    4:20   36.5    90    0.0     0      0.0  99999.0    0.02       0    46.5
  82    4:30   36.0    90    0.2   312      1.7  99999.0    0.01       0    46.5
  82    4:40   35.9    90    0.0     0      0.0  99999.0    0.00       0    46.5
  82    4:50   35.7    90    0.2   251      1.4  99999.0    0.01       0    46.4
  82    5:00   35.3    90    1.1   238      2.3  99999.0    0.01       0    46.4
  82    5:10   34.9    90    1.2   238      1.8  99999.0    0.01       0    46.4
  82    5:20   34.6    90    0.6   245      2.0  99999.0    0.01       0    46.3
  82    5:30   34.6    90    0.3   324      1.9  99999.0    0.01       0    46.3
  82    5:40   34.2    90    0.9   331      2.6  99999.0    0.01       0    46.3
  82    5:50   33.9    91    0.2   320      1.8  99999.0    0.00       0    46.2
  82    6:00   33.7    91    0.0     0      0.0  99999.0    0.01       1    46.2
  82    6:10   33.6    91    0.0     0      0.0  99999.0    0.00       4    46.2

Return to South Reno, Nevada graphs page.


Western Regional Climate Center,wrcc@dri.edu